Time;durP1;ratioP1;P1;durP2;ratioP2;P2;SDS_P1;SDS_P2;PMS_P1;PMS_P2;Temp;Humidity;BMP_temperature;BMP_pressure;BME280_temperature;BME280_humidity;BME280_pressure;Samples;Min_cycle;Max_cycle;Signal;HPM_P1;HPM_P2
2024/02/29 00:00:25;;;;;;;21.02;13.23;;;3.50;99.60;;;;;;6272335;22;20066;-73
2024/02/29 00:03:11;;;;;;;20.35;12.88;;;3.50;99.70;;;;;;6269097;22;20012;-72
2024/02/29 00:05:57;;;;;;;22.25;13.70;;;3.40;99.60;;;;;;6270296;22;20016;-72
2024/02/29 00:08:43;;;;;;;21.63;13.80;;;3.40;99.70;;;;;;6269482;22;20015;-71
2024/02/29 00:11:29;;;;;;;22.58;13.18;;;3.40;99.70;;;;;;6268511;22;20118;-72
2024/02/29 00:14:15;;;;;;;22.15;13.70;;;3.40;99.80;;;;;;6271272;22;20012;-73
2024/02/29 00:17:01;;;;;;;22.63;13.60;;;3.40;99.80;;;;;;6270358;22;20050;-73
2024/02/29 00:19:47;;;;;;;23.30;14.32;;;3.30;99.80;;;;;;6270078;22;20030;-73
2024/02/29 00:22:33;;;;;;;30.10;15.82;;;3.30;99.90;;;;;;6268121;22;20008;-72
2024/02/29 00:25:19;;;;;;;24.30;12.65;;;3.30;99.90;;;;;;6270145;22;20026;-73
2024/02/29 00:28:05;;;;;;;20.60;13.15;;;3.30;99.90;;;;;;6270506;22;20310;-72
2024/02/29 00:30:51;;;;;;;24.33;14.88;;;3.30;99.90;;;;;;6270815;22;20011;-72
2024/02/29 00:33:36;;;;;;;24.98;13.98;;;3.20;99.90;;;;;;6267845;22;20015;-72
2024/02/29 00:36:22;;;;;;;22.70;13.82;;;3.20;99.90;;;;;;6269126;22;20436;-73
2024/02/29 00:39:08;;;;;;;25.05;13.18;;;3.30;99.90;;;;;;6269834;22;20098;-73
2024/02/29 00:41:54;;;;;;;29.92;13.98;;;3.20;99.90;;;;;;6270600;22;20376;-73
2024/02/29 00:44:40;;;;;;;26.80;14.00;;;3.20;99.90;;;;;;6268529;22;20043;-72
2024/02/29 00:47:26;;;;;;;20.35;12.32;;;3.20;99.90;;;;;;6270504;22;20523;-73
2024/02/29 00:50:12;;;;;;;22.40;12.90;;;3.20;99.90;;;;;;6269859;22;20008;-72
2024/02/29 00:52:58;;;;;;;25.88;13.82;;;3.20;99.90;;;;;;6268610;22;20019;-73
2024/02/29 00:55:44;;;;;;;22.15;13.13;;;3.20;99.90;;;;;;6267983;22;20027;-72
2024/02/29 00:58:30;;;;;;;23.77;13.45;;;3.20;99.90;;;;;;6269653;22;20456;-74
2024/02/29 01:01:16;;;;;;;24.60;13.63;;;3.20;99.90;;;;;;6269965;22;19999;-73
2024/02/29 01:04:03;;;;;;;22.25;13.20;;;3.20;99.90;;;;;;6270470;22;20014;-74
2024/02/29 01:06:49;;;;;;;24.45;13.60;;;3.10;99.90;;;;;;6270417;22;20019;-74
2024/02/29 01:09:35;;;;;;;23.27;13.45;;;3.20;99.90;;;;;;6272615;22;20046;-73
2024/02/29 01:12:21;;;;;;;25.67;14.52;;;3.10;99.90;;;;;;6271153;22;20015;-72
2024/02/29 01:15:12;;;;;;;24.27;14.18;;;3.10;99.90;;;;;;6246220;22;20042;-72
2024/02/29 01:17:58;;;;;;;25.13;14.50;;;3.10;99.90;;;;;;6273170;22;20015;-72
2024/02/29 01:20:44;;;;;;;28.42;14.75;;;3.10;99.90;;;;;;6272508;22;20008;-73
2024/02/29 01:23:30;;;;;;;22.35;14.68;;;3.10;99.90;;;;;;6272436;22;20018;-72
2024/02/29 01:26:16;;;;;;;25.58;14.48;;;3.10;99.90;;;;;;6269957;22;20163;-72
2024/02/29 01:29:02;;;;;;;25.95;14.27;;;3.10;99.90;;;;;;6271699;22;20015;-73
2024/02/29 01:31:48;;;;;;;24.33;14.50;;;3.10;99.90;;;;;;6271692;22;20094;-72
2024/02/29 01:34:34;;;;;;;24.05;14.23;;;3.10;99.90;;;;;;6268795;22;20008;-72
2024/02/29 01:37:20;;;;;;;24.17;12.88;;;3.10;99.90;;;;;;6271124;22;20007;-73
2024/02/29 01:40:07;;;;;;;22.48;14.00;;;3.10;99.90;;;;;;6272368;22;20031;-73
2024/02/29 01:42:53;;;;;;;28.02;15.10;;;3.00;99.90;;;;;;6248798;22;20401;-72
2024/02/29 01:45:39;;;;;;;27.20;14.88;;;3.00;99.90;;;;;;6271527;22;20073;-73
2024/02/29 01:48:25;;;;;;;25.27;14.57;;;3.10;99.90;;;;;;6271354;22;20035;-73
2024/02/29 01:51:11;;;;;;;31.98;15.02;;;3.10;99.90;;;;;;6270313;22;20087;-73
2024/02/29 01:53:57;;;;;;;28.17;16.10;;;3.10;99.90;;;;;;6272657;22;20444;-73
2024/02/29 01:56:43;;;;;;;27.98;15.20;;;3.00;99.90;;;;;;6273113;22;20004;-74
2024/02/29 01:59:31;;;;;;;28.45;17.00;;;3.00;99.90;;;;;;6271494;22;20026;-71
2024/02/29 02:02:18;;;;;;;26.40;15.88;;;3.00;99.90;;;;;;6275257;22;20012;-71
2024/02/29 02:05:07;;;;;;;28.48;16.17;;;3.00;99.90;;;;;;6271011;22;20341;-70
2024/02/29 02:07:53;;;;;;;26.65;14.68;;;3.00;99.90;;;;;;6271363;22;20676;-70
2024/02/29 02:10:39;;;;;;;28.60;16.05;;;2.90;99.90;;;;;;6270068;22;20090;-70
2024/02/29 02:13:25;;;;;;;28.75;15.77;;;2.90;99.90;;;;;;6270650;22;20503;-70
2024/02/29 02:16:11;;;;;;;25.63;14.73;;;2.90;99.90;;;;;;6272187;22;20053;-70
2024/02/29 02:18:57;;;;;;;28.27;15.13;;;2.90;99.90;;;;;;6246810;22;20020;-70
2024/02/29 02:21:43;;;;;;;28.50;15.35;;;2.90;99.90;;;;;;6271486;22;20015;-69
2024/02/29 02:24:31;;;;;;;27.58;15.10;;;2.90;99.90;;;;;;6270877;22;20008;-69
2024/02/29 02:27:17;;;;;;;27.08;15.45;;;2.90;99.90;;;;;;6273269;22;20027;-67
2024/02/29 02:30:06;;;;;;;25.83;14.90;;;2.90;99.90;;;;;;6248390;22;20003;-70
2024/02/29 02:32:52;;;;;;;29.45;15.48;;;2.80;99.90;;;;;;6269868;22;20023;-70
2024/02/29 02:35:38;;;;;;;31.60;16.73;;;2.80;99.90;;;;;;6272626;22;20039;-71
2024/02/29 02:38:24;;;;;;;31.35;16.42;;;2.80;99.90;;;;;;6273396;22;20403;-74
2024/02/29 02:41:11;;;;;;;25.88;15.18;;;2.80;99.90;;;;;;6286345;22;20004;-66
2024/02/29 02:43:57;;;;;;;25.67;14.35;;;2.80;99.90;;;;;;6281250;22;20087;-72
2024/02/29 02:46:43;;;;;;;26.85;15.52;;;2.80;99.90;;;;;;6271157;22;20031;-70
2024/02/29 02:49:29;;;;;;;28.48;16.58;;;2.80;99.90;;;;;;6271078;22;20086;-70
2024/02/29 02:52:15;;;;;;;28.52;16.05;;;2.70;99.90;;;;;;6272061;22;20004;-69
2024/02/29 02:55:01;;;;;;;28.02;15.70;;;2.80;99.90;;;;;;6271364;22;20413;-70
2024/02/29 02:57:47;;;;;;;27.25;15.48;;;2.80;99.90;;;;;;6272444;22;20463;-69
2024/02/29 03:00:33;;;;;;;29.45;15.70;;;2.70;99.90;;;;;;6270971;22;20008;-68
2024/02/29 03:03:19;;;;;;;26.95;15.80;;;2.70;99.90;;;;;;6271973;22;20007;-70
2024/02/29 03:06:05;;;;;;;28.30;15.80;;;2.70;99.90;;;;;;6271818;22;20003;-69
2024/02/29 03:08:51;;;;;;;30.80;16.73;;;2.70;99.90;;;;;;6271963;22;20420;-69
2024/02/29 03:11:38;;;;;;;27.40;16.08;;;2.70;99.90;;;;;;6271954;22;20020;-69
2024/02/29 03:14:24;;;;;;;28.98;16.20;;;2.70;99.90;;;;;;6270466;22;20383;-70
2024/02/29 03:17:09;;;;;;;33.05;17.33;;;2.70;99.90;;;;;;6271101;22;20008;-69
2024/02/29 03:19:55;;;;;;;30.73;17.75;;;2.70;99.90;;;;;;6269531;22;20099;-68
2024/02/29 03:22:41;;;;;;;31.25;17.67;;;2.70;99.90;;;;;;6272006;22;20016;-70
2024/02/29 03:25:27;;;;;;;28.25;15.70;;;2.70;99.90;;;;;;6271598;22;20012;-71
2024/02/29 03:28:13;;;;;;;29.95;16.38;;;2.60;99.90;;;;;;6271774;22;20007;-69
2024/02/29 03:31:00;;;;;;;30.25;16.48;;;2.60;99.90;;;;;;6271650;22;20011;-69
2024/02/29 03:33:46;;;;;;;31.85;16.95;;;2.60;99.90;;;;;;6269418;22;20322;-70
2024/02/29 03:36:32;;;;;;;31.95;17.70;;;2.60;99.90;;;;;;6270126;22;20047;-69
2024/02/29 03:39:18;;;;;;;32.90;17.55;;;2.60;99.90;;;;;;6247573;22;20153;-69
2024/02/29 03:42:04;;;;;;;26.83;15.45;;;2.60;99.90;;;;;;6270302;22;20318;-70
2024/02/29 03:44:49;;;;;;;28.75;17.00;;;2.60;99.90;;;;;;6269263;22;20016;-69
2024/02/29 03:47:36;;;;;;;31.60;16.95;;;2.60;99.90;;;;;;6270548;22;20090;-69
2024/02/29 03:50:24;;;;;;;34.97;17.77;;;2.60;99.90;;;;;;6270520;22;20042;-68
2024/02/29 03:53:10;;;;;;;35.28;18.27;;;2.60;99.90;;;;;;6269768;22;20322;-70
2024/02/29 03:55:56;;;;;;;34.40;17.73;;;2.60;99.90;;;;;;6271415;22;20110;-69
2024/02/29 03:58:42;;;;;;;34.72;17.48;;;2.60;99.90;;;;;;6271053;22;20016;-70
2024/02/29 04:01:28;;;;;;;30.50;17.77;;;2.60;99.90;;;;;;6247746;22;20432;-69
2024/02/29 04:04:17;;;;;;;32.33;17.63;;;2.60;99.90;;;;;;6270863;22;20437;-68
2024/02/29 04:07:02;;;;;;;32.13;17.15;;;2.50;99.90;;;;;;6269155;22;20046;-69
2024/02/29 04:09:54;;;;;;;38.00;17.55;;;2.50;99.90;;;;;;6268917;22;20015;-70
2024/02/29 04:12:40;;;;;;;31.30;17.38;;;2.50;99.90;;;;;;6271366;22;20004;-69
2024/02/29 04:15:26;;;;;;;32.05;16.45;;;2.50;99.90;;;;;;6270255;22;20018;-70
2024/02/29 04:18:13;;;;;;;32.80;16.90;;;2.50;99.90;;;;;;6268730;22;20055;-69
2024/02/29 04:20:59;;;;;;;33.63;18.15;;;2.50;99.90;;;;;;6269490;22;20343;-70
2024/02/29 04:23:44;;;;;;;31.38;18.55;;;2.50;99.90;;;;;;6269828;22;20061;-70
2024/02/29 04:26:30;;;;;;;31.70;18.92;;;2.40;99.90;;;;;;6269462;22;20007;-70
2024/02/29 04:29:16;;;;;;;34.70;17.77;;;2.50;99.90;;;;;;6247515;22;20011;-71
2024/02/29 04:32:02;;;;;;;32.10;18.38;;;2.40;99.90;;;;;;6270168;22;20309;-70
2024/02/29 04:34:49;;;;;;;34.05;17.92;;;2.40;99.90;;;;;;6269669;22;20008;-70
2024/02/29 04:37:35;;;;;;;36.22;18.98;;;2.40;99.90;;;;;;6269302;22;20054;-70
2024/02/29 04:40:21;;;;;;;32.67;17.48;;;2.40;99.90;;;;;;6270922;22;20016;-70
2024/02/29 04:43:08;;;;;;;33.38;18.25;;;2.40;99.90;;;;;;6270836;22;20015;-70
2024/02/29 04:46:05;;;;;;;36.22;18.52;;;2.40;99.90;;;;;;6271125;22;20008;-69
2024/02/29 04:48:51;;;;;;;34.15;18.73;;;2.40;99.90;;;;;;6272849;22;20008;-69
2024/02/29 04:51:37;;;;;;;32.22;18.13;;;2.40;99.90;;;;;;6269487;22;20069;-70
2024/02/29 16:03:21;;;;;;;19.90;12.90;;;11.50;94.70;;;;;;6240182;22;20032;-66
2024/02/29 16:06:08;;;;;;;18.42;12.82;;;11.40;94.70;;;;;;6242728;23;20024;-65
2024/02/29 16:08:54;;;;;;;20.60;13.85;;;11.40;94.80;;;;;;6242318;23;20110;-65
2024/02/29 16:11:42;;;;;;;19.70;13.88;;;11.30;94.80;;;;;;6240942;23;20015;-65
2024/02/29 16:14:28;;;;;;;21.05;14.00;;;11.30;94.90;;;;;;6239697;23;20384;-66
2024/02/29 16:17:14;;;;;;;22.45;14.18;;;11.20;95.00;;;;;;6240170;23;20016;-66
2024/02/29 16:20:00;;;;;;;18.38;12.23;;;11.10;95.00;;;;;;6236835;23;20020;-66
2024/02/29 16:22:47;;;;;;;19.23;12.73;;;11.10;95.10;;;;;;6239677;23;20441;-67
2024/02/29 16:25:33;;;;;;;21.63;13.27;;;11.00;95.10;;;;;;6241890;23;20012;-67
2024/02/29 16:28:20;;;;;;;17.40;11.25;;;11.00;95.20;;;;;;6241347;23;20019;-67
2024/02/29 16:31:06;;;;;;;16.00;11.13;;;10.90;95.20;;;;;;6243088;23;20031;-67
2024/02/29 16:33:52;;;;;;;15.27;11.02;;;10.90;95.30;;;;;;6239892;23;20004;-66
2024/02/29 16:36:38;;;;;;;14.43;9.82;;;10.80;95.30;;;;;;6242313;23;20023;-66
2024/02/29 16:39:24;;;;;;;13.75;9.80;;;10.80;95.30;;;;;;6242043;23;20052;-66
2024/02/29 16:42:10;;;;;;;12.57;9.52;;;10.80;95.30;;;;;;6240455;23;20015;-67
2024/02/29 16:44:57;;;;;;;13.98;9.60;;;10.70;95.30;;;;;;6240300;23;20008;-66
2024/02/29 16:47:43;;;;;;;14.23;9.90;;;10.70;95.40;;;;;;6241171;23;20083;-66
2024/02/29 16:50:29;;;;;;;12.55;9.82;;;10.60;95.40;;;;;;6237694;23;20040;-67
2024/02/29 16:53:15;;;;;;;13.10;10.00;;;10.60;95.40;;;;;;6239648;23;20018;-64
2024/02/29 16:56:01;;;;;;;14.05;10.20;;;10.60;95.40;;;;;;6240286;23;20009;-66
2024/02/29 16:58:47;;;;;;;15.02;10.70;;;10.60;95.40;;;;;;6240217;23;20116;-66
2024/02/29 17:01:33;;;;;;;12.75;9.70;;;10.60;95.50;;;;;;6236816;23;20019;-65
2024/02/29 17:04:19;;;;;;;14.65;9.85;;;10.60;95.50;;;;;;6237658;23;20103;-65
2024/02/29 17:07:05;;;;;;;14.48;10.27;;;10.60;95.60;;;;;;6239803;23;20448;-63
2024/02/29 17:09:54;;;;;;;12.82;8.80;;;10.60;95.50;;;;;;6239897;23;20030;-63
2024/02/29 17:12:40;;;;;;;15.60;9.75;;;10.60;95.60;;;;;;6236765;23;20340;-63
2024/02/29 17:15:26;;;;;;;14.45;9.55;;;10.60;95.60;;;;;;6240965;23;20062;-62
2024/02/29 17:18:12;;;;;;;14.35;9.75;;;10.60;95.60;;;;;;6239635;23;20084;-62
2024/02/29 17:20:58;;;;;;;14.93;9.95;;;10.60;95.60;;;;;;6239015;23;20385;-61
2024/02/29 17:23:44;;;;;;;13.90;9.82;;;10.60;95.60;;;;;;6236069;23;20019;-62
2024/02/29 17:26:30;;;;;;;14.30;10.07;;;10.60;95.60;;;;;;6239846;23;20417;-62
2024/02/29 17:29:17;;;;;;;12.57;9.57;;;10.50;95.60;;;;;;6241989;23;20016;-61
2024/02/29 17:32:04;;;;;;;16.08;10.15;;;10.50;95.60;;;;;;6235021;23;20070;-63
2024/02/29 17:34:50;;;;;;;18.20;10.70;;;10.50;95.60;;;;;;6240274;23;20429;-61
2024/02/29 17:37:36;;;;;;;13.45;9.48;;;10.50;95.60;;;;;;6237939;23;20508;-60
2024/02/29 17:40:22;;;;;;;13.02;9.45;;;10.50;95.60;;;;;;6239669;23;20024;-63
2024/02/29 17:43:08;;;;;;;15.80;10.80;;;10.50;95.70;;;;;;6237852;23;20016;-61
2024/02/29 17:45:53;;;;;;;13.85;9.50;;;10.50;95.70;;;;;;6239342;23;20456;-61
2024/02/29 17:48:39;;;;;;;13.65;9.85;;;10.60;95.90;;;;;;6233888;23;20039;-61
2024/02/29 17:51:26;;;;;;;16.65;10.60;;;10.60;95.70;;;;;;6239161;23;20066;-61
2024/02/29 17:54:12;;;;;;;15.27;10.90;;;10.60;95.70;;;;;;6239677;23;20012;-62
2024/02/29 17:56:58;;;;;;;15.70;9.82;;;10.60;95.70;;;;;;6240225;23;20012;-62
2024/02/29 17:59:44;;;;;;;14.00;9.70;;;10.60;95.70;;;;;;6239618;23;20183;-62
2024/02/29 18:02:30;;;;;;;15.23;10.38;;;10.60;95.80;;;;;;6238660;23;20345;-62
2024/02/29 18:05:16;;;;;;;15.77;9.60;;;10.60;95.70;;;;;;6241665;23;20334;-62
2024/02/29 18:08:02;;;;;;;13.95;9.85;;;10.60;95.80;;;;;;6238108;23;20008;-62
2024/02/29 18:10:49;;;;;;;13.10;9.18;;;10.60;95.80;;;;;;6240921;23;20012;-62
2024/02/29 18:13:35;;;;;;;13.23;9.00;;;10.60;95.80;;;;;;6240035;23;20035;-62
2024/02/29 18:16:21;;;;;;;15.13;9.45;;;10.60;95.80;;;;;;6242139;23;20012;-62
2024/02/29 18:19:08;;;;;;;15.45;9.98;;;10.60;95.90;;;;;;6240718;23;20031;-61
2024/02/29 18:21:54;;;;;;;13.52;9.43;;;10.60;95.90;;;;;;6242147;23;20012;-61
2024/02/29 18:24:40;;;;;;;13.60;9.65;;;10.60;95.90;;;;;;6236911;23;20012;-62
2024/02/29 18:27:26;;;;;;;14.10;9.90;;;10.70;96.00;;;;;;6241323;23;20428;-60
2024/02/29 18:30:12;;;;;;;14.07;10.57;;;10.60;96.00;;;;;;6241439;23;20012;-61
2024/02/29 18:32:58;;;;;;;16.35;10.65;;;10.70;96.10;;;;;;6240986;23;20099;-61
2024/02/29 18:35:45;;;;;;;16.00;10.60;;;10.60;96.10;;;;;;6220494;23;20019;-61
2024/02/29 18:38:31;;;;;;;15.05;10.38;;;10.60;96.20;;;;;;6241835;23;20425;-62
2024/02/29 18:41:17;;;;;;;16.63;11.38;;;10.60;96.30;;;;;;6242125;23;20051;-62
2024/02/29 18:44:04;;;;;;;16.02;11.40;;;10.60;96.40;;;;;;6238936;23;20016;-61
2024/02/29 18:46:50;;;;;;;14.48;10.93;;;10.60;96.50;;;;;;6242158;23;20112;-61
2024/02/29 18:49:36;;;;;;;16.13;11.48;;;10.60;96.60;;;;;;6240985;23;20083;-61
2024/02/29 18:52:22;;;;;;;18.17;12.15;;;10.70;96.60;;;;;;6240746;23;20083;-61
2024/02/29 18:55:08;;;;;;;15.75;11.68;;;10.70;96.70;;;;;;6239091;23;20066;-62
2024/02/29 18:57:53;;;;;;;15.38;11.18;;;10.60;96.80;;;;;;6241699;23;20008;-62
2024/02/29 19:00:40;;;;;;;14.30;10.55;;;10.60;97.10;;;;;;6240995;23;20020;-62
2024/02/29 19:03:26;;;;;;;17.42;11.48;;;10.60;97.00;;;;;;6246065;23;20095;-62
2024/02/29 19:06:11;;;;;;;15.63;12.70;;;10.60;97.10;;;;;;6243634;23;20076;-61
2024/02/29 19:08:57;;;;;;;21.42;12.23;;;10.60;97.10;;;;;;6241723;23;20091;-62
2024/02/29 19:11:43;;;;;;;18.85;13.02;;;10.60;97.20;;;;;;6242780;23;20008;-62
2024/02/29 19:14:29;;;;;;;20.98;13.93;;;10.60;97.30;;;;;;6242481;23;20016;-62
2024/02/29 19:17:15;;;;;;;18.92;12.45;;;10.60;97.40;;;;;;6221105;23;20009;-62
2024/02/29 19:20:10;;;;;;;18.58;12.55;;;10.50;97.40;;;;;;6242721;23;20073;-62
2024/02/29 19:22:56;;;;;;;18.05;11.95;;;10.50;97.50;;;;;;6240433;23;20113;-62
2024/02/29 19:25:42;;;;;;;21.13;13.85;;;10.50;97.60;;;;;;6242681;23;20012;-62
2024/02/29 19:28:32;;;;;;;18.73;12.13;;;10.50;97.70;;;;;;6242715;23;20009;-62
2024/02/29 19:31:18;;;;;;;19.55;13.48;;;10.50;97.80;;;;;;6240508;23;20111;-62
2024/02/29 19:34:04;;;;;;;17.92;12.20;;;10.50;97.80;;;;;;6241705;23;20397;-62
2024/02/29 19:36:50;;;;;;;18.05;11.60;;;10.50;97.90;;;;;;6219423;23;20012;-63
2024/02/29 19:39:39;;;;;;;19.67;13.40;;;10.40;97.90;;;;;;6239337;23;20349;-62
2024/02/29 19:42:25;;;;;;;19.60;11.80;;;10.40;97.90;;;;;;6241413;23;20007;-64
2024/02/29 19:45:11;;;;;;;18.35;12.88;;;10.40;97.90;;;;;;6240045;23;20012;-61
2024/02/29 19:47:57;;;;;;;17.50;11.93;;;10.40;98.00;;;;;;6239841;23;20282;-62
2024/02/29 19:50:43;;;;;;;21.33;13.02;;;10.40;98.10;;;;;;6240706;23;20019;-63
2024/02/29 19:53:29;;;;;;;17.40;12.90;;;10.40;98.10;;;;;;6241374;23;20008;-62
2024/02/29 19:56:15;;;;;;;24.08;14.35;;;10.40;98.10;;;;;;6241494;23;20285;-62
2024/02/29 19:59:02;;;;;;;20.30;13.50;;;10.40;98.20;;;;;;6238315;23;20024;-63
2024/02/29 20:01:48;;;;;;;20.25;13.00;;;10.30;98.20;;;;;;6241196;23;20087;-62
2024/02/29 20:04:35;;;;;;;20.35;13.02;;;10.30;98.30;;;;;;6220499;23;20023;-62
2024/02/29 20:07:21;;;;;;;25.38;14.80;;;10.30;98.30;;;;;;6241597;23;20373;-62
2024/02/29 20:10:07;;;;;;;21.83;14.10;;;10.30;98.30;;;;;;6219230;23;20074;-63
2024/02/29 20:12:53;;;;;;;20.63;13.23;;;10.30;98.30;;;;;;6241606;23;20016;-62
2024/02/29 20:15:39;;;;;;;23.63;14.02;;;10.30;98.40;;;;;;6241937;23;20011;-62
2024/02/29 20:18:27;;;;;;;22.13;14.13;;;10.30;98.40;;;;;;6240584;23;20070;-62
2024/02/29 20:21:15;;;;;;;22.05;14.68;;;10.30;98.40;;;;;;6221189;23;20449;-62
2024/02/29 20:24:01;;;;;;;21.60;13.40;;;10.30;98.50;;;;;;6239981;23;20012;-63
2024/02/29 20:26:47;;;;;;;20.08;13.25;;;10.30;98.50;;;;;;6239547;23;20059;-62
2024/02/29 20:29:33;;;;;;;20.35;12.90;;;10.30;98.50;;;;;;6241633;23;20030;-64
2024/02/29 20:32:22;;;;;;;21.33;14.90;;;10.30;98.60;;;;;;6240187;23;20079;-60
2024/02/29 20:35:08;;;;;;;34.50;15.13;;;10.30;98.60;;;;;;6239119;23;20318;-61
2024/02/29 20:37:54;;;;;;;23.50;14.00;;;10.30;98.70;;;;;;6239185;23;20058;-60
2024/02/29 20:40:40;;;;;;;21.65;13.95;;;10.20;98.70;;;;;;6243358;23;20078;-64
2024/02/29 20:43:26;;;;;;;21.42;13.98;;;10.20;98.70;;;;;;6240670;23;20008;-60
2024/02/29 20:46:16;;;;;;;22.27;13.55;;;10.30;98.80;;;;;;6238971;23;20468;-60
2024/02/29 20:49:02;;;;;;;21.20;14.27;;;10.20;98.90;;;;;;6240190;23;20011;-61
2024/02/29 20:51:48;;;;;;;25.58;14.77;;;10.20;98.90;;;;;;6241379;23;20739;-61
2024/02/29 20:54:34;;;;;;;23.00;14.02;;;10.30;98.90;;;;;;6240138;23;20008;-62
2024/02/29 20:57:23;;;;;;;28.65;14.73;;;10.30;99.20;;;;;;6240168;23;20020;-62
2024/02/29 21:00:10;;;;;;;25.98;14.05;;;10.20;99.00;;;;;;6240894;23;20058;-62
2024/02/29 21:02:56;;;;;;;22.33;13.65;;;10.20;99.00;;;;;;6240407;23;20306;-63
2024/02/29 21:05:42;;;;;;;30.20;16.80;;;10.30;99.00;;;;;;6238609;23;20449;-63
2024/02/29 21:08:32;;;;;;;24.83;15.18;;;10.30;99.00;;;;;;6237109;23;20325;-63
2024/02/29 21:11:19;;;;;;;21.27;14.30;;;10.30;99.10;;;;;;6240050;23;20361;-63
2024/02/29 21:14:06;;;;;;;23.92;15.38;;;10.30;99.10;;;;;;6241903;23;20004;-63
2024/02/29 21:16:52;;;;;;;21.10;14.55;;;10.30;99.10;;;;;;6243330;23;20004;-64
2024/02/29 21:19:38;;;;;;;23.88;14.07;;;10.30;99.10;;;;;;6238560;23;20090;-66
2024/02/29 21:22:24;;;;;;;24.15;15.48;;;10.30;99.20;;;;;;6243463;23;20028;-67
2024/02/29 21:25:11;;;;;;;23.48;14.90;;;10.30;99.20;;;;;;6240873;23;20031;-67
2024/02/29 21:27:57;;;;;;;24.13;13.32;;;10.30;99.20;;;;;;6240015;23;20396;-66
2024/02/29 21:30:43;;;;;;;23.30;14.70;;;10.30;99.20;;;;;;6240715;23;20333;-66
2024/02/29 21:33:31;;;;;;;28.77;15.18;;;10.30;99.30;;;;;;6242311;23;20341;-65
2024/02/29 21:36:16;;;;;;;23.40;15.55;;;10.40;99.40;;;;;;6264385;23;20027;-66
2024/02/29 21:39:03;;;;;;;25.80;14.82;;;10.30;99.30;;;;;;6247946;23;20027;-66
2024/02/29 21:41:49;;;;;;;24.48;15.52;;;10.30;99.30;;;;;;6243469;23;20008;-65
2024/02/29 21:44:34;;;;;;;22.75;14.15;;;10.30;99.30;;;;;;6244405;23;20016;-67
2024/02/29 21:47:20;;;;;;;22.92;14.77;;;10.30;99.40;;;;;;6242896;23;20004;-67
2024/02/29 21:50:07;;;;;;;20.90;14.45;;;10.30;99.40;;;;;;6240068;23;20079;-67
2024/02/29 21:52:53;;;;;;;22.50;14.90;;;10.30;99.40;;;;;;6243538;23;20014;-67
2024/02/29 21:55:38;;;;;;;22.65;13.68;;;10.30;99.40;;;;;;6243097;23;20018;-67
2024/02/29 21:58:26;;;;;;;22.55;14.75;;;10.20;99.40;;;;;;6240629;23;20012;-65
2024/02/29 22:01:12;;;;;;;23.88;15.05;;;10.20;99.40;;;;;;6241234;23;20137;-66
2024/02/29 22:03:58;;;;;;;23.90;14.93;;;10.10;99.40;;;;;;6242352;22;20020;-66
2024/02/29 22:06:44;;;;;;;28.20;16.10;;;10.10;99.40;;;;;;6240899;23;20008;-66
2024/02/29 22:09:32;;;;;;;24.95;15.52;;;10.10;99.50;;;;;;6243203;23;20093;-66
2024/02/29 22:12:17;;;;;;;25.13;15.73;;;10.00;99.50;;;;;;6220412;23;20193;-67
2024/02/29 22:15:05;;;;;;;23.52;15.50;;;10.00;99.50;;;;;;6220478;23;20008;-67
2024/02/29 22:17:51;;;;;;;24.27;15.75;;;9.90;99.60;;;;;;6241143;23;20016;-66
2024/02/29 22:20:37;;;;;;;26.40;15.35;;;9.90;99.60;;;;;;6243147;23;20111;-67
2024/02/29 22:23:23;;;;;;;24.58;16.48;;;9.90;99.70;;;;;;6240707;23;20008;-66
2024/02/29 22:26:09;;;;;;;28.67;15.82;;;9.80;99.70;;;;;;6242063;23;20094;-66
2024/02/29 22:28:55;;;;;;;25.45;17.25;;;9.80;99.80;;;;;;6243148;23;20396;-66
2024/02/29 22:31:41;;;;;;;25.15;16.77;;;9.70;99.80;;;;;;6242029;23;20012;-66
2024/02/29 22:34:27;;;;;;;29.75;17.40;;;9.70;99.90;;;;;;6241894;23;20396;-66
2024/02/29 22:37:13;;;;;;;32.03;17.15;;;9.70;99.90;;;;;;6242216;23;20015;-66
2024/02/29 22:39:59;;;;;;;26.88;16.40;;;9.70;99.90;;;;;;6244521;23;20118;-66
2024/02/29 22:42:45;;;;;;;26.45;16.60;;;9.70;99.90;;;;;;6242627;23;20425;-65
2024/02/29 22:45:31;;;;;;;27.85;16.70;;;9.70;99.90;;;;;;6243365;23;20016;-66
2024/02/29 22:48:18;;;;;;;25.25;16.42;;;9.70;99.90;;;;;;6241571;23;20008;-66
2024/02/29 22:51:04;;;;;;;23.48;15.77;;;9.70;99.90;;;;;;6242414;23;20087;-64
2024/02/29 22:53:50;;;;;;;27.83;16.73;;;9.70;99.90;;;;;;6248227;23;20019;-65
2024/02/29 22:56:36;;;;;;;29.45;16.02;;;9.70;99.90;;;;;;6248125;23;20008;-65
2024/02/29 22:59:22;;;;;;;30.48;18.48;;;9.70;99.90;;;;;;6241941;23;20479;-67
2024/02/29 23:02:08;;;;;;;29.08;17.50;;;9.70;99.90;;;;;;6243173;23;20336;-66
2024/02/29 23:04:54;;;;;;;26.75;18.13;;;9.70;99.90;;;;;;6241960;23;20405;-67
2024/02/29 23:07:40;;;;;;;26.67;17.38;;;9.70;99.90;;;;;;6241948;23;20009;-67
2024/02/29 23:10:26;;;;;;;27.88;17.00;;;9.70;99.90;;;;;;6240845;23;20012;-66
2024/02/29 23:13:12;;;;;;;28.40;16.85;;;9.60;99.90;;;;;;6243655;23;20337;-66
2024/02/29 23:15:58;;;;;;;25.02;16.27;;;9.70;99.90;;;;;;6241267;23;20376;-66
2024/02/29 23:18:44;;;;;;;27.08;17.60;;;9.60;99.90;;;;;;6242498;23;20020;-66
2024/02/29 23:21:30;;;;;;;30.77;17.73;;;9.60;99.90;;;;;;6242172;23;20015;-67
2024/02/29 23:24:16;;;;;;;27.42;16.88;;;9.60;99.90;;;;;;6222223;23;20015;-67
2024/02/29 23:27:02;;;;;;;26.48;18.05;;;9.60;99.90;;;;;;6240904;23;20403;-67
2024/02/29 23:29:49;;;;;;;30.45;18.23;;;9.60;99.90;;;;;;6243074;23;20004;-66
2024/02/29 23:32:35;;;;;;;29.98;16.33;;;9.60;99.90;;;;;;6244041;23;20008;-66
2024/02/29 23:35:21;;;;;;;33.88;20.02;;;9.60;99.90;;;;;;6241455;23;20079;-66
2024/02/29 23:38:07;;;;;;;33.58;18.05;;;9.60;99.90;;;;;;6242591;23;20019;-67
2024/02/29 23:40:53;;;;;;;28.30;18.00;;;9.60;99.90;;;;;;6241824;23;20012;-67
2024/02/29 23:43:39;;;;;;;28.80;18.10;;;9.60;99.90;;;;;;6240969;23;20014;-67
2024/02/29 23:46:25;;;;;;;25.25;17.08;;;9.60;99.90;;;;;;6237861;23;20012;-66
2024/02/29 23:49:11;;;;;;;34.60;19.98;;;9.60;99.90;;;;;;6239429;23;20487;-65
2024/02/29 23:51:57;;;;;;;34.28;19.48;;;9.60;99.90;;;;;;6241874;23;20341;-64
2024/02/29 23:54:46;;;;;;;30.15;17.83;;;9.60;99.90;;;;;;6241014;23;20318;-64
2024/02/29 23:57:32;;;;;;;29.27;17.83;;;9.60;99.90;;;;;;6240580;23;20040;-64
